πŸ“Š DonnΓ©es MΓ©tΓ©o - Bordeaux

Total mesures

14,416

TempΓ©rature moyenne

18.9Β°C

Temp. Min/Max

2.9Β° / 42.4Β°

HumiditΓ© moyenne

64.9%

Pression moyenne

1014.7 hPa
enregistrements
ID Date/Heure Temp (Β°C) HumiditΓ© (%) Pression (hPa) Tendance LuminositΓ© (lux) Situation
11316 12/07/2026 23:45 27.9 62.0 1,007.9 β†’ Stable 0 confortablement-chaud (approx.)
11315 12/07/2026 23:15 28.4 63.0 1,007.9 β†’ Stable 0 confortablement-chaud (approx.)
11314 12/07/2026 22:45 31.3 37.0 1,008.6 β†’ Stable 0 chaleur-seche
11313 12/07/2026 22:15 27.8 66.0 1,008.6 β†’ Stable 0 confortablement-chaud (approx.)
11312 12/07/2026 21:45 29.2 62.0 1,006.7 β†’ Stable 0 conditions-neutrales-ou-non-definies
11311 12/07/2026 21:15 32.1 46.0 1,006.7 β†’ Stable 0 conditions-neutrales-ou-non-definies
11310 12/07/2026 20:45 34.0 23.0 1,004.5 β†’ Stable 0 chaleur-seche
11309 12/07/2026 20:15 35.0 23.0 1,004.5 β†’ Stable 0 chaleur-seche
11308 12/07/2026 19:45 35.8 23.0 1,004.2 β†’ Stable 828 chaleur-seche
11307 12/07/2026 19:15 37.6 18.0 1,004.2 β†’ Stable 6,852 chaleur-seche
11306 12/07/2026 18:45 38.2 18.0 1,004.1 β†’ Stable 13,428 chaleur-seche
11305 12/07/2026 18:15 39.3 15.0 1,004.1 β†’ Stable 26,112 chaleur-seche
11304 12/07/2026 17:45 39.4 15.0 1,004.6 β†’ Stable 35,832 chaleur-seche
11303 12/07/2026 17:15 40.0 15.0 1,004.6 ↓ Baisse 47,124 chaleur-seche
11302 12/07/2026 16:45 39.9 15.0 1,005.4 ↓ Baisse 56,760 chaleur-seche
11301 12/07/2026 16:15 40.0 15.0 1,005.4 β†’ Stable 67,680 chaleur-seche
11300 12/07/2026 15:45 39.8 17.0 1,006.3 β†’ Stable 76,572 chaleur-seche
11299 12/07/2026 15:15 39.8 17.0 1,006.3 β†’ Stable 84,168 chaleur-seche
11298 12/07/2026 14:45 39.7 16.0 1,007.2 β†’ Stable 91,392 chaleur-seche
11297 12/07/2026 14:15 39.9 16.0 1,007.2 β†’ Stable 96,852 chaleur-seche
11296 12/07/2026 13:45 39.6 16.0 1,008.1 β†’ Stable 101,484 chaleur-seche
11295 12/07/2026 13:15 39.3 17.0 1,008.3 β†’ Stable 104,628 chaleur-seche
11294 12/07/2026 12:45 38.8 19.0 1,009.2 β†’ Stable 106,572 chaleur-seche
11293 12/07/2026 12:15 38.2 20.0 1,009.2 β†’ Stable 107,220 chaleur-seche
11292 12/07/2026 12:00 37.9 21.0 1,009.2 β†’ Stable 107,040 chaleur-seche
11291 12/07/2026 11:45 37.4 22.0 1,010.3 β†’ Stable 106,572 chaleur-seche
11290 12/07/2026 11:15 36.7 25.0 1,010.3 β†’ Stable 104,532 chaleur-seche
11289 12/07/2026 10:45 35.7 27.0 1,010.5 β†’ Stable 101,292 chaleur-seche
11288 12/07/2026 10:15 34.7 30.0 1,010.5 β†’ Stable 96,852 chaleur-seche
11287 12/07/2026 09:45 33.5 33.0 1,010.5 β†’ Stable 91,296 chaleur-seche
11286 12/07/2026 09:15 32.1 37.0 1,010.5 β†’ Stable 82,968 chaleur-seche
11285 12/07/2026 08:45 31.0 39.0 1,010.7 β†’ Stable 75,096 chaleur-seche
11284 12/07/2026 08:15 30.1 42.0 1,010.7 β†’ Stable 64,080 conditions-neutrales-ou-non-definies
11283 12/07/2026 07:45 29.0 45.0 1,010.8 β†’ Stable 55,092 confortablement-chaud (approx.)
11282 12/07/2026 07:15 27.0 50.0 1,010.8 β†’ Stable 42,684 confortablement-chaud (approx.)
11281 12/07/2026 06:45 25.7 52.0 1,010.8 β†’ Stable 33,708 confortablement-chaud (approx.)
11280 12/07/2026 06:15 23.9 57.0 1,010.8 β†’ Stable 21,204 conditions-neutrales-ou-non-definies
11279 12/07/2026 05:45 23.2 58.0 1,010.4 β†’ Stable 13,524 conditions-neutrales-ou-non-definies
11278 12/07/2026 05:15 23.3 58.0 1,010.3 β†’ Stable 4,908 conditions-neutrales-ou-non-definies
11277 12/07/2026 05:00 23.4 58.0 1,010.3 β†’ Stable 2,412 conditions-neutrales-ou-non-definies
11276 12/07/2026 04:45 23.5 56.0 1,009.8 β†’ Stable 552 conditions-neutrales-ou-non-definies
11275 12/07/2026 04:15 23.6 56.0 1,009.8 β†’ Stable 0 conditions-neutrales-ou-non-definies
11274 12/07/2026 04:00 23.6 56.0 1,009.8 β†’ Stable 0 conditions-neutrales-ou-non-definies
11273 12/07/2026 03:45 23.6 56.0 1,010.1 β†’ Stable 0 conditions-neutrales-ou-non-definies
11272 12/07/2026 03:15 23.9 57.0 1,010.1 β†’ Stable 0 conditions-neutrales-ou-non-definies
11271 12/07/2026 03:00 24.1 56.0 1,010.1 β†’ Stable 0 confortablement-chaud (approx.)
11270 12/07/2026 02:45 24.3 55.0 1,010.0 β†’ Stable 0 confortablement-chaud (approx.)
11269 12/07/2026 02:15 25.6 49.0 1,010.0 β†’ Stable 0 confortablement-chaud (approx.)
11268 12/07/2026 01:45 26.1 47.0 1,009.7 β†’ Stable 0 confortablement-chaud (approx.)
11267 12/07/2026 01:15 26.9 45.0 1,009.7 β†’ Stable 0 confortablement-chaud (approx.)
11266 12/07/2026 00:45 27.0 44.0 1,009.5 β†’ Stable 0 confortablement-chaud (approx.)
11265 12/07/2026 00:15 27.6 42.0 1,009.5 β†’ Stable 0 confortablement-chaud (approx.)
11264 11/07/2026 23:45 28.0 42.0 1,010.1 β†’ Stable 0 confortablement-chaud (approx.)
11263 11/07/2026 23:15 28.7 40.0 1,010.1 β†’ Stable 0 confortablement-chaud (approx.)
11262 11/07/2026 22:45 29.1 40.0 1,009.2 β†’ Stable 0 conditions-neutrales-ou-non-definies
11261 11/07/2026 22:15 29.5 41.0 1,009.2 β†’ Stable 0 conditions-neutrales-ou-non-definies
11260 11/07/2026 21:45 30.0 41.0 1,009.3 β†’ Stable 0 conditions-neutrales-ou-non-definies
11259 11/07/2026 21:15 30.4 38.0 1,009.3 β†’ Stable 0 chaleur-seche
11258 11/07/2026 20:45 31.0 35.0 1,009.1 β†’ Stable 0 chaleur-seche
11257 11/07/2026 20:15 33.1 31.0 1,009.1 β†’ Stable 0 chaleur-seche
11256 11/07/2026 19:45 34.3 27.0 1,008.3 β†’ Stable 924 chaleur-seche
11255 11/07/2026 19:15 35.1 24.0 1,008.3 β†’ Stable 7,776 chaleur-seche
11254 11/07/2026 18:45 35.6 24.0 1,008.4 β†’ Stable 15,468 chaleur-seche
11253 11/07/2026 18:15 36.5 19.0 1,008.4 β†’ Stable 26,016 chaleur-seche
11252 11/07/2026 17:45 36.7 20.0 1,008.5 β†’ Stable 35,652 chaleur-seche
11251 11/07/2026 17:15 36.9 20.0 1,008.5 β†’ Stable 47,124 chaleur-seche
11250 11/07/2026 16:45 36.9 20.0 1,008.7 β†’ Stable 56,760 chaleur-seche
11249 11/07/2026 16:15 36.9 21.0 1,008.7 β†’ Stable 67,500 chaleur-seche
11248 11/07/2026 15:45 36.9 21.0 1,008.8 β†’ Stable 76,296 chaleur-seche
11247 11/07/2026 15:15 36.8 23.0 1,008.8 β†’ Stable 84,624 chaleur-seche
11246 11/07/2026 14:45 36.7 24.0 1,009.6 β†’ Stable 91,572 chaleur-seche
11245 11/07/2026 14:15 36.3 25.0 1,009.6 β†’ Stable 97,128 chaleur-seche
11244 11/07/2026 13:45 36.0 26.0 1,010.2 β†’ Stable 101,580 chaleur-seche
11243 11/07/2026 13:15 36.1 25.0 1,010.3 β†’ Stable 104,724 chaleur-seche
11242 11/07/2026 12:45 35.4 27.0 1,010.9 β†’ Stable 106,668 chaleur-seche
11241 11/07/2026 12:15 34.5 31.0 1,010.9 β†’ Stable 107,316 chaleur-seche
11240 11/07/2026 11:45 33.6 34.0 1,011.2 β†’ Stable 106,668 chaleur-seche
11239 11/07/2026 11:15 32.5 38.0 1,011.2 β†’ Stable 104,724 chaleur-seche
11238 11/07/2026 10:45 31.7 40.0 1,011.3 β†’ Stable 101,484 confortablement-chaud (approx.)
11237 11/07/2026 10:15 30.3 46.0 1,011.3 β†’ Stable 96,852 confortablement-chaud (approx.)
11236 11/07/2026 09:45 29.2 50.0 1,011.3 β†’ Stable 91,296 confortablement-chaud (approx.)
11235 11/07/2026 09:15 27.7 55.0 1,011.3 β†’ Stable 82,128 confortablement-chaud
11234 11/07/2026 08:45 26.4 61.0 1,011.3 β†’ Stable 74,256 confortablement-chaud
11233 11/07/2026 08:15 25.5 66.0 1,011.3 β†’ Stable 62,592 confortablement-chaud (approx.)
11232 11/07/2026 07:45 24.8 68.0 1,011.4 β†’ Stable 53,616 confortablement-chaud (approx.)
11231 11/07/2026 07:15 24.2 68.0 1,011.4 β†’ Stable 30,000 confortablement-chaud (approx.)
11230 11/07/2026 07:00 23.7 71.0 1,011.4 β†’ Stable 23,976 pluvieux-gris (approx.)
11229 11/07/2026 06:45 23.2 72.0 1,011.3 β†’ Stable 21,384 pluvieux-gris (approx.)
11228 11/07/2026 06:15 23.3 76.0 1,011.3 β†’ Stable 11,760 pluvieux-gris (approx.)
11227 11/07/2026 06:00 22.8 79.0 1,011.3 β†’ Stable 8,052 pluvieux-gris (approx.)
11226 11/07/2026 05:45 22.2 81.0 1,011.2 β†’ Stable 6,480 pluvieux-gris (approx.)
11225 11/07/2026 05:15 22.0 75.0 1,011.0 β†’ Stable 4,080 pluvieux-gris (approx.)
11224 11/07/2026 05:00 21.7 77.0 1,011.0 β†’ Stable 2,040 pluvieux-gris (approx.)
11223 11/07/2026 04:45 21.6 77.0 1,010.6 β†’ Stable 552 pluvieux-gris (approx.)
11222 11/07/2026 04:15 22.1 76.0 1,010.6 β†’ Stable 0 pluvieux-gris (approx.)
11221 11/07/2026 03:45 22.2 74.0 1,010.5 β†’ Stable 0 pluvieux-gris (approx.)
11220 11/07/2026 03:15 23.0 73.0 1,010.5 β†’ Stable 0 pluvieux-gris (approx.)
11219 11/07/2026 03:00 23.2 70.0 1,010.5 β†’ Stable 0 pluvieux-gris (approx.)
11218 11/07/2026 02:45 23.2 69.0 1,010.0 β†’ Stable 0 conditions-neutrales-ou-non-definies
11217 11/07/2026 02:15 23.3 69.0 1,010.0 β†’ Stable 0 conditions-neutrales-ou-non-definies